sensor_id;sensor_type;location;lat;lon;timestamp;P1;durP1;ratioP1;P2;durP2;ratioP2
47337;SDS011;33069;51.970;5.892;2022-07-29T00:01:24;3.28;;;1.90;;
47337;SDS011;33069;51.970;5.892;2022-07-29T00:03:49;4.72;;;1.80;;
47337;SDS011;33069;51.970;5.892;2022-07-29T00:06:16;6.13;;;1.50;;
47337;SDS011;33069;51.970;5.892;2022-07-29T00:08:42;5.45;;;1.63;;
47337;SDS011;33069;51.970;5.892;2022-07-29T00:11:07;4.78;;;1.63;;
47337;SDS011;33069;51.970;5.892;2022-07-29T00:13:33;5.18;;;1.80;;
47337;SDS011;33069;51.970;5.892;2022-07-29T00:15:59;3.72;;;1.77;;
47337;SDS011;33069;51.970;5.892;2022-07-29T00:18:25;4.80;;;1.67;;
47337;SDS011;33069;51.970;5.892;2022-07-29T00:20:51;4.88;;;1.58;;
47337;SDS011;33069;51.970;5.892;2022-07-29T00:23:17;4.15;;;1.85;;
47337;SDS011;33069;51.970;5.892;2022-07-29T00:25:43;4.90;;;1.70;;
47337;SDS011;33069;51.970;5.892;2022-07-29T00:28:09;6.70;;;1.85;;
47337;SDS011;33069;51.970;5.892;2022-07-29T00:30:35;3.95;;;1.77;;
47337;SDS011;33069;51.970;5.892;2022-07-29T00:33:00;5.22;;;1.75;;
47337;SDS011;33069;51.970;5.892;2022-07-29T00:35:26;5.63;;;2.10;;
47337;SDS011;33069;51.970;5.892;2022-07-29T00:38:11;3.95;;;1.98;;
47337;SDS011;33069;51.970;5.892;2022-07-29T00:40:38;6.80;;;2.05;;
47337;SDS011;33069;51.970;5.892;2022-07-29T00:43:04;5.63;;;1.98;;
47337;SDS011;33069;51.970;5.892;2022-07-29T00:45:30;4.65;;;1.52;;
47337;SDS011;33069;51.970;5.892;2022-07-29T00:47:56;5.97;;;1.90;;
47337;SDS011;33069;51.970;5.892;2022-07-29T00:50:22;4.35;;;1.85;;
47337;SDS011;33069;51.970;5.892;2022-07-29T00:52:48;9.07;;;2.30;;
47337;SDS011;33069;51.970;5.892;2022-07-29T00:55:16;5.57;;;1.90;;
47337;SDS011;33069;51.970;5.892;2022-07-29T00:57:43;4.90;;;2.13;;
47337;SDS011;33069;51.970;5.892;2022-07-29T01:00:11;5.75;;;2.25;;
47337;SDS011;33069;51.970;5.892;2022-07-29T01:02:39;4.10;;;1.77;;
47337;SDS011;33069;51.970;5.892;2022-07-29T01:05:05;4.55;;;2.30;;
47337;SDS011;33069;51.970;5.892;2022-07-29T01:07:32;5.13;;;2.10;;
47337;SDS011;33069;51.970;5.892;2022-07-29T01:10:00;3.08;;;1.80;;
47337;SDS011;33069;51.970;5.892;2022-07-29T01:12:31;4.00;;;1.88;;
47337;SDS011;33069;51.970;5.892;2022-07-29T01:14:58;5.20;;;2.10;;
47337;SDS011;33069;51.970;5.892;2022-07-29T01:31:47;4.30;;;2.30;;
47337;SDS011;33069;51.970;5.892;2022-07-29T01:37:20;6.00;;;2.28;;
47337;SDS011;33069;51.970;5.892;2022-07-29T01:39:51;9.02;;;2.60;;
47337;SDS011;33069;51.970;5.892;2022-07-29T01:45:37;6.55;;;2.38;;
47337;SDS011;33069;51.970;5.892;2022-07-29T01:47:44;4.90;;;2.25;;
47337;SDS011;33069;51.970;5.892;2022-07-29T01:50:22;5.32;;;2.13;;
47337;SDS011;33069;51.970;5.892;2022-07-29T01:52:56;4.13;;;2.20;;
47337;SDS011;33069;51.970;5.892;2022-07-29T01:55:29;5.43;;;2.05;;
47337;SDS011;33069;51.970;5.892;2022-07-29T01:57:59;4.15;;;2.00;;
47337;SDS011;33069;51.970;5.892;2022-07-29T02:00:27;5.43;;;2.03;;
47337;SDS011;33069;51.970;5.892;2022-07-29T02:02:55;6.07;;;2.35;;
47337;SDS011;33069;51.970;5.892;2022-07-29T02:05:21;4.90;;;1.80;;
47337;SDS011;33069;51.970;5.892;2022-07-29T02:07:49;5.45;;;2.35;;
47337;SDS011;33069;51.970;5.892;2022-07-29T02:10:18;7.07;;;2.20;;
47337;SDS011;33069;51.970;5.892;2022-07-29T02:12:48;7.28;;;2.20;;
47337;SDS011;33069;51.970;5.892;2022-07-29T02:15:17;5.45;;;2.00;;
47337;SDS011;33069;51.970;5.892;2022-07-29T02:17:46;7.72;;;1.90;;
47337;SDS011;33069;51.970;5.892;2022-07-29T02:20:16;6.90;;;2.10;;
47337;SDS011;33069;51.970;5.892;2022-07-29T02:22:42;7.70;;;2.10;;
47337;SDS011;33069;51.970;5.892;2022-07-29T02:25:09;6.13;;;2.75;;
47337;SDS011;33069;51.970;5.892;2022-07-29T02:27:35;8.13;;;3.03;;
47337;SDS011;33069;51.970;5.892;2022-07-29T02:30:03;4.45;;;2.70;;
47337;SDS011;33069;51.970;5.892;2022-07-29T02:32:31;7.65;;;2.67;;
47337;SDS011;33069;51.970;5.892;2022-07-29T02:34:59;10.48;;;2.80;;
47337;SDS011;33069;51.970;5.892;2022-07-29T02:37:26;5.05;;;2.53;;
47337;SDS011;33069;51.970;5.892;2022-07-29T02:39:54;5.72;;;2.40;;
47337;SDS011;33069;51.970;5.892;2022-07-29T02:42:22;3.83;;;2.30;;
47337;SDS011;33069;51.970;5.892;2022-07-29T02:44:51;4.38;;;2.13;;
47337;SDS011;33069;51.970;5.892;2022-07-29T02:47:31;5.13;;;2.50;;
47337;SDS011;33069;51.970;5.892;2022-07-29T02:55:19;7.07;;;2.70;;
47337;SDS011;33069;51.970;5.892;2022-07-29T02:57:53;6.67;;;2.67;;
47337;SDS011;33069;51.970;5.892;2022-07-29T03:00:28;6.80;;;2.50;;
47337;SDS011;33069;51.970;5.892;2022-07-29T03:02:58;6.25;;;2.65;;
47337;SDS011;33069;51.970;5.892;2022-07-29T03:05:26;6.63;;;3.38;;
47337;SDS011;33069;51.970;5.892;2022-07-29T03:08:04;5.68;;;3.10;;
47337;SDS011;33069;51.970;5.892;2022-07-29T03:10:31;5.95;;;2.85;;
47337;SDS011;33069;51.970;5.892;2022-07-29T03:12:57;5.50;;;3.00;;
47337;SDS011;33069;51.970;5.892;2022-07-29T03:15:23;9.02;;;3.30;;
47337;SDS011;33069;51.970;5.892;2022-07-29T03:17:50;7.93;;;3.40;;
47337;SDS011;33069;51.970;5.892;2022-07-29T03:20:17;7.53;;;3.65;;
47337;SDS011;33069;51.970;5.892;2022-07-29T03:22:43;6.53;;;3.10;;
47337;SDS011;33069;51.970;5.892;2022-07-29T03:25:14;9.80;;;3.30;;
47337;SDS011;33069;51.970;5.892;2022-07-29T03:27:41;7.95;;;3.63;;
47337;SDS011;33069;51.970;5.892;2022-07-29T03:30:08;5.65;;;3.55;;
47337;SDS011;33069;51.970;5.892;2022-07-29T03:32:35;10.40;;;4.05;;
47337;SDS011;33069;51.970;5.892;2022-07-29T03:35:01;8.90;;;3.88;;
47337;SDS011;33069;51.970;5.892;2022-07-29T03:37:27;5.97;;;4.20;;
47337;SDS011;33069;51.970;5.892;2022-07-29T03:39:54;6.00;;;3.67;;
47337;SDS011;33069;51.970;5.892;2022-07-29T03:42:22;6.88;;;4.30;;
47337;SDS011;33069;51.970;5.892;2022-07-29T03:44:50;7.10;;;4.03;;
47337;SDS011;33069;51.970;5.892;2022-07-29T03:47:18;7.53;;;3.55;;
47337;SDS011;33069;51.970;5.892;2022-07-29T03:49:48;6.63;;;4.57;;
47337;SDS011;33069;51.970;5.892;2022-07-29T03:52:16;5.72;;;4.55;;
47337;SDS011;33069;51.970;5.892;2022-07-29T03:54:43;6.95;;;4.93;;
47337;SDS011;33069;51.970;5.892;2022-07-29T03:57:10;7.53;;;5.00;;
47337;SDS011;33069;51.970;5.892;2022-07-29T03:59:37;6.25;;;4.80;;
47337;SDS011;33069;51.970;5.892;2022-07-29T04:02:05;7.30;;;4.72;;
47337;SDS011;33069;51.970;5.892;2022-07-29T04:04:34;12.15;;;6.32;;
47337;SDS011;33069;51.970;5.892;2022-07-29T04:07:00;6.82;;;4.60;;
47337;SDS011;33069;51.970;5.892;2022-07-29T04:09:26;10.38;;;5.43;;
47337;SDS011;33069;51.970;5.892;2022-07-29T04:11:52;9.43;;;4.70;;
47337;SDS011;33069;51.970;5.892;2022-07-29T04:14:18;6.10;;;5.03;;
47337;SDS011;33069;51.970;5.892;2022-07-29T04:16:45;12.52;;;5.82;;
47337;SDS011;33069;51.970;5.892;2022-07-29T04:19:11;8.77;;;4.75;;
47337;SDS011;33069;51.970;5.892;2022-07-29T04:21:40;10.02;;;4.65;;
47337;SDS011;33069;51.970;5.892;2022-07-29T04:24:06;6.80;;;4.93;;
47337;SDS011;33069;51.970;5.892;2022-07-29T04:26:32;9.30;;;5.07;;
47337;SDS011;33069;51.970;5.892;2022-07-29T04:28:58;8.52;;;5.22;;
47337;SDS011;33069;51.970;5.892;2022-07-29T04:31:24;5.88;;;4.60;;
47337;SDS011;33069;51.970;5.892;2022-07-29T04:33:50;8.70;;;4.85;;
47337;SDS011;33069;51.970;5.892;2022-07-29T04:36:16;9.52;;;5.80;;
47337;SDS011;33069;51.970;5.892;2022-07-29T04:38:42;9.45;;;5.78;;
47337;SDS011;33069;51.970;5.892;2022-07-29T04:41:08;10.15;;;5.03;;
47337;SDS011;33069;51.970;5.892;2022-07-29T04:43:34;7.55;;;5.13;;
47337;SDS011;33069;51.970;5.892;2022-07-29T04:46:01;8.57;;;5.28;;
47337;SDS011;33069;51.970;5.892;2022-07-29T04:48:28;8.55;;;5.53;;
47337;SDS011;33069;51.970;5.892;2022-07-29T04:50:53;7.53;;;4.43;;
47337;SDS011;33069;51.970;5.892;2022-07-29T04:53:19;10.07;;;5.40;;
47337;SDS011;33069;51.970;5.892;2022-07-29T04:55:45;11.57;;;5.32;;
47337;SDS011;33069;51.970;5.892;2022-07-29T04:58:11;8.82;;;4.88;;
47337;SDS011;33069;51.970;5.892;2022-07-29T05:00:37;9.05;;;5.00;;
47337;SDS011;33069;51.970;5.892;2022-07-29T05:03:03;8.70;;;4.68;;
47337;SDS011;33069;51.970;5.892;2022-07-29T05:05:29;8.30;;;4.72;;
47337;SDS011;33069;51.970;5.892;2022-07-29T05:07:55;6.47;;;5.32;;
47337;SDS011;33069;51.970;5.892;2022-07-29T05:10:21;6.25;;;4.20;;
47337;SDS011;33069;51.970;5.892;2022-07-29T05:12:47;6.55;;;4.57;;
47337;SDS011;33069;51.970;5.892;2022-07-29T05:15:13;10.75;;;4.93;;
47337;SDS011;33069;51.970;5.892;2022-07-29T05:17:38;8.18;;;4.70;;
47337;SDS011;33069;51.970;5.892;2022-07-29T05:20:04;7.95;;;4.38;;
47337;SDS011;33069;51.970;5.892;2022-07-29T05:22:31;12.40;;;4.88;;
47337;SDS011;33069;51.970;5.892;2022-07-29T05:24:56;9.15;;;4.78;;
47337;SDS011;33069;51.970;5.892;2022-07-29T05:27:22;8.07;;;4.40;;
47337;SDS011;33069;51.970;5.892;2022-07-29T05:29:48;9.70;;;4.22;;
47337;SDS011;33069;51.970;5.892;2022-07-29T05:32:14;12.52;;;4.25;;
47337;SDS011;33069;51.970;5.892;2022-07-29T05:34:40;5.38;;;3.60;;
47337;SDS011;33069;51.970;5.892;2022-07-29T05:37:06;8.60;;;4.18;;
47337;SDS011;33069;51.970;5.892;2022-07-29T05:39:32;9.10;;;3.88;;
47337;SDS011;33069;51.970;5.892;2022-07-29T05:41:58;6.93;;;4.10;;
47337;SDS011;33069;51.970;5.892;2022-07-29T05:44:23;9.32;;;4.20;;
47337;SDS011;33069;51.970;5.892;2022-07-29T05:46:49;7.75;;;4.65;;
47337;SDS011;33069;51.970;5.892;2022-07-29T05:49:15;9.15;;;4.10;;
47337;SDS011;33069;51.970;5.892;2022-07-29T05:51:41;8.40;;;4.30;;
47337;SDS011;33069;51.970;5.892;2022-07-29T05:54:07;7.38;;;4.47;;
47337;SDS011;33069;51.970;5.892;2022-07-29T05:56:32;7.28;;;4.45;;
47337;SDS011;33069;51.970;5.892;2022-07-29T05:58:58;7.65;;;4.72;;
47337;SDS011;33069;51.970;5.892;2022-07-29T06:01:24;7.40;;;4.07;;
47337;SDS011;33069;51.970;5.892;2022-07-29T06:03:50;6.47;;;3.88;;
47337;SDS011;33069;51.970;5.892;2022-07-29T06:06:15;8.55;;;4.60;;
47337;SDS011;33069;51.970;5.892;2022-07-29T06:08:41;10.43;;;4.32;;
47337;SDS011;33069;51.970;5.892;2022-07-29T06:11:07;7.63;;;4.80;;
47337;SDS011;33069;51.970;5.892;2022-07-29T06:13:33;6.63;;;4.20;;
47337;SDS011;33069;51.970;5.892;2022-07-29T06:15:59;7.05;;;4.40;;
47337;SDS011;33069;51.970;5.892;2022-07-29T06:18:25;6.78;;;4.53;;
47337;SDS011;33069;51.970;5.892;2022-07-29T06:20:52;5.78;;;4.07;;
47337;SDS011;33069;51.970;5.892;2022-07-29T06:23:18;7.75;;;3.80;;
47337;SDS011;33069;51.970;5.892;2022-07-29T06:25:45;6.18;;;3.70;;
47337;SDS011;33069;51.970;5.892;2022-07-29T06:28:11;6.80;;;4.35;;
47337;SDS011;33069;51.970;5.892;2022-07-29T06:30:37;9.25;;;3.72;;
47337;SDS011;33069;51.970;5.892;2022-07-29T06:33:03;10.32;;;3.72;;
47337;SDS011;33069;51.970;5.892;2022-07-29T06:35:29;5.38;;;3.90;;
47337;SDS011;33069;51.970;5.892;2022-07-29T06:37:55;7.63;;;3.20;;
47337;SDS011;33069;51.970;5.892;2022-07-29T06:40:20;4.90;;;3.70;;
47337;SDS011;33069;51.970;5.892;2022-07-29T06:43:04;8.98;;;3.50;;
47337;SDS011;33069;51.970;5.892;2022-07-29T06:45:33;9.52;;;3.75;;
47337;SDS011;33069;51.970;5.892;2022-07-29T06:47:59;7.15;;;3.10;;
47337;SDS011;33069;51.970;5.892;2022-07-29T06:50:25;7.90;;;4.28;;
47337;SDS011;33069;51.970;5.892;2022-07-29T06:52:51;8.93;;;4.10;;
47337;SDS011;33069;51.970;5.892;2022-07-29T06:55:17;12.52;;;3.47;;
47337;SDS011;33069;51.970;5.892;2022-07-29T06:57:44;5.30;;;3.10;;
47337;SDS011;33069;51.970;5.892;2022-07-29T07:00:11;6.63;;;2.97;;
47337;SDS011;33069;51.970;5.892;2022-07-29T07:02:37;12.20;;;2.88;;
47337;SDS011;33069;51.970;5.892;2022-07-29T07:05:03;5.43;;;3.03;;
47337;SDS011;33069;51.970;5.892;2022-07-29T07:07:30;7.65;;;3.38;;
47337;SDS011;33069;51.970;5.892;2022-07-29T07:09:56;7.25;;;3.40;;
47337;SDS011;33069;51.970;5.892;2022-07-29T07:12:22;4.97;;;2.83;;
47337;SDS011;33069;51.970;5.892;2022-07-29T07:14:48;4.45;;;3.22;;
47337;SDS011;33069;51.970;5.892;2022-07-29T07:17:13;10.93;;;3.40;;
47337;SDS011;33069;51.970;5.892;2022-07-29T07:19:40;4.47;;;3.33;;
47337;SDS011;33069;51.970;5.892;2022-07-29T07:22:05;6.35;;;3.17;;
47337;SDS011;33069;51.970;5.892;2022-07-29T07:24:31;9.43;;;3.42;;
47337;SDS011;33069;51.970;5.892;2022-07-29T07:26:57;14.73;;;4.10;;
47337;SDS011;33069;51.970;5.892;2022-07-29T07:29:22;5.40;;;3.08;;
47337;SDS011;33069;51.970;5.892;2022-07-29T07:31:48;7.55;;;3.35;;
47337;SDS011;33069;51.970;5.892;2022-07-29T07:34:14;7.82;;;3.53;;
47337;SDS011;33069;51.970;5.892;2022-07-29T07:36:40;9.73;;;3.30;;
47337;SDS011;33069;51.970;5.892;2022-07-29T07:39:05;6.95;;;3.88;;
47337;SDS011;33069;51.970;5.892;2022-07-29T07:41:31;11.73;;;3.70;;
47337;SDS011;33069;51.970;5.892;2022-07-29T07:43:57;5.30;;;3.60;;
47337;SDS011;33069;51.970;5.892;2022-07-29T07:46:23;6.00;;;3.17;;
47337;SDS011;33069;51.970;5.892;2022-07-29T07:48:49;8.65;;;3.72;;
47337;SDS011;33069;51.970;5.892;2022-07-29T07:51:14;9.57;;;3.63;;
47337;SDS011;33069;51.970;5.892;2022-07-29T07:53:40;7.22;;;3.30;;
47337;SDS011;33069;51.970;5.892;2022-07-29T07:56:06;4.97;;;3.15;;
47337;SDS011;33069;51.970;5.892;2022-07-29T07:58:32;5.85;;;3.05;;
47337;SDS011;33069;51.970;5.892;2022-07-29T08:00:58;6.70;;;3.17;;
47337;SDS011;33069;51.970;5.892;2022-07-29T08:03:23;9.73;;;3.13;;
47337;SDS011;33069;51.970;5.892;2022-07-29T08:05:49;9.25;;;3.60;;
47337;SDS011;33069;51.970;5.892;2022-07-29T08:08:16;4.70;;;2.92;;
47337;SDS011;33069;51.970;5.892;2022-07-29T08:10:42;5.07;;;3.42;;
47337;SDS011;33069;51.970;5.892;2022-07-29T08:13:17;4.80;;;2.85;;
47337;SDS011;33069;51.970;5.892;2022-07-29T08:15:44;5.95;;;3.10;;
47337;SDS011;33069;51.970;5.892;2022-07-29T08:18:11;9.30;;;3.40;;
47337;SDS011;33069;51.970;5.892;2022-07-29T08:20:38;11.27;;;3.53;;
47337;SDS011;33069;51.970;5.892;2022-07-29T08:23:05;7.47;;;3.35;;
47337;SDS011;33069;51.970;5.892;2022-07-29T08:25:33;7.75;;;3.47;;
47337;SDS011;33069;51.970;5.892;2022-07-29T08:28:01;7.35;;;3.78;;
47337;SDS011;33069;51.970;5.892;2022-07-29T08:30:27;6.47;;;3.42;;
47337;SDS011;33069;51.970;5.892;2022-07-29T08:32:52;4.53;;;3.20;;
47337;SDS011;33069;51.970;5.892;2022-07-29T08:35:19;6.90;;;3.42;;
47337;SDS011;33069;51.970;5.892;2022-07-29T08:37:45;6.38;;;3.30;;
47337;SDS011;33069;51.970;5.892;2022-07-29T08:40:11;8.45;;;3.47;;
47337;SDS011;33069;51.970;5.892;2022-07-29T08:42:37;9.05;;;3.70;;
47337;SDS011;33069;51.970;5.892;2022-07-29T08:45:03;6.88;;;3.30;;
47337;SDS011;33069;51.970;5.892;2022-07-29T08:47:30;6.13;;;3.28;;
47337;SDS011;33069;51.970;5.892;2022-07-29T08:49:56;5.35;;;3.10;;
47337;SDS011;33069;51.970;5.892;2022-07-29T08:52:23;6.78;;;3.20;;
47337;SDS011;33069;51.970;5.892;2022-07-29T08:54:52;9.32;;;3.20;;
47337;SDS011;33069;51.970;5.892;2022-07-29T08:57:18;7.95;;;2.90;;
47337;SDS011;33069;51.970;5.892;2022-07-29T08:59:46;4.40;;;3.13;;
47337;SDS011;33069;51.970;5.892;2022-07-29T09:02:20;7.43;;;2.80;;
47337;SDS011;33069;51.970;5.892;2022-07-29T09:04:47;5.40;;;3.20;;
47337;SDS011;33069;51.970;5.892;2022-07-29T09:07:17;6.90;;;3.03;;
47337;SDS011;33069;51.970;5.892;2022-07-29T09:09:43;6.50;;;3.45;;
47337;SDS011;33069;51.970;5.892;2022-07-29T09:12:10;6.90;;;2.83;;
47337;SDS011;33069;51.970;5.892;2022-07-29T09:14:39;8.95;;;3.83;;
47337;SDS011;33069;51.970;5.892;2022-07-29T09:17:05;7.72;;;3.38;;
47337;SDS011;33069;51.970;5.892;2022-07-29T09:19:32;8.40;;;3.33;;
47337;SDS011;33069;51.970;5.892;2022-07-29T09:22:03;6.20;;;3.65;;
47337;SDS011;33069;51.970;5.892;2022-07-29T09:24:43;7.20;;;4.05;;
47337;SDS011;33069;51.970;5.892;2022-07-29T09:32:12;7.28;;;3.55;;
47337;SDS011;33069;51.970;5.892;2022-07-29T09:34:37;10.60;;;4.25;;
47337;SDS011;33069;51.970;5.892;2022-07-29T09:37:03;9.50;;;4.28;;
47337;SDS011;33069;51.970;5.892;2022-07-29T09:39:34;6.63;;;3.83;;
47337;SDS011;33069;51.970;5.892;2022-07-29T09:42:04;9.43;;;3.25;;
47337;SDS011;33069;51.970;5.892;2022-07-29T09:44:44;9.90;;;4.35;;
47337;SDS011;33069;51.970;5.892;2022-07-29T09:47:13;7.10;;;4.22;;
47337;SDS011;33069;51.970;5.892;2022-07-29T09:49:58;7.78;;;3.47;;
47337;SDS011;33069;51.970;5.892;2022-07-29T09:52:29;10.70;;;3.53;;
47337;SDS011;33069;51.970;5.892;2022-07-29T09:55:07;12.48;;;3.60;;
47337;SDS011;33069;51.970;5.892;2022-07-29T09:57:35;7.43;;;3.90;;
47337;SDS011;33069;51.970;5.892;2022-07-29T10:00:03;12.15;;;4.15;;
47337;SDS011;33069;51.970;5.892;2022-07-29T10:02:32;8.18;;;4.03;;
47337;SDS011;33069;51.970;5.892;2022-07-29T10:05:00;10.18;;;4.20;;
47337;SDS011;33069;51.970;5.892;2022-07-29T10:07:42;7.88;;;3.58;;
47337;SDS011;33069;51.970;5.892;2022-07-29T10:10:18;6.13;;;3.65;;
47337;SDS011;33069;51.970;5.892;2022-07-29T10:15:21;8.68;;;3.88;;
47337;SDS011;33069;51.970;5.892;2022-07-29T10:17:52;5.78;;;3.63;;
47337;SDS011;33069;51.970;5.892;2022-07-29T10:20:19;8.13;;;4.30;;
47337;SDS011;33069;51.970;5.892;2022-07-29T10:22:46;7.70;;;4.47;;
47337;SDS011;33069;51.970;5.892;2022-07-29T10:25:13;5.88;;;3.47;;
47337;SDS011;33069;51.970;5.892;2022-07-29T10:27:41;8.60;;;4.22;;
47337;SDS011;33069;51.970;5.892;2022-07-29T10:30:08;8.43;;;4.55;;
47337;SDS011;33069;51.970;5.892;2022-07-29T10:46:40;6.28;;;3.65;;
47337;SDS011;33069;51.970;5.892;2022-07-29T10:49:17;9.90;;;3.70;;
47337;SDS011;33069;51.970;5.892;2022-07-29T10:54:19;9.10;;;3.90;;
47337;SDS011;33069;51.970;5.892;2022-07-29T10:59:47;17.73;;;3.60;;
47337;SDS011;33069;51.970;5.892;2022-07-29T11:07:28;9.90;;;3.50;;
47337;SDS011;33069;51.970;5.892;2022-07-29T11:20:39;8.40;;;3.67;;
47337;SDS011;33069;51.970;5.892;2022-07-29T11:26:15;7.65;;;4.00;;
47337;SDS011;33069;51.970;5.892;2022-07-29T11:31:39;7.22;;;3.00;;
47337;SDS011;33069;51.970;5.892;2022-07-29T11:39:37;8.73;;;3.60;;
47337;SDS011;33069;51.970;5.892;2022-07-29T11:45:06;7.82;;;3.65;;
47337;SDS011;33069;51.970;5.892;2022-07-29T11:50:15;10.18;;;4.00;;
47337;SDS011;33069;51.970;5.892;2022-07-29T11:52:51;8.40;;;4.43;;
47337;SDS011;33069;51.970;5.892;2022-07-29T11:55:17;6.28;;;3.72;;
47337;SDS011;33069;51.970;5.892;2022-07-29T11:57:48;4.40;;;3.20;;
47337;SDS011;33069;51.970;5.892;2022-07-29T12:00:21;7.55;;;3.13;;
47337;SDS011;33069;51.970;5.892;2022-07-29T12:02:47;8.43;;;3.20;;
47337;SDS011;33069;51.970;5.892;2022-07-29T12:05:13;9.13;;;3.58;;
47337;SDS011;33069;51.970;5.892;2022-07-29T12:07:39;8.57;;;3.20;;
47337;SDS011;33069;51.970;5.892;2022-07-29T12:10:05;7.43;;;3.35;;
47337;SDS011;33069;51.970;5.892;2022-07-29T12:12:32;6.97;;;2.85;;
47337;SDS011;33069;51.970;5.892;2022-07-29T12:15:12;6.55;;;3.03;;
47337;SDS011;33069;51.970;5.892;2022-07-29T12:20:09;5.40;;;2.50;;
47337;SDS011;33069;51.970;5.892;2022-07-29T12:22:36;7.20;;;2.85;;
47337;SDS011;33069;51.970;5.892;2022-07-29T12:25:08;4.07;;;2.78;;
47337;SDS011;33069;51.970;5.892;2022-07-29T12:27:35;7.57;;;2.80;;
47337;SDS011;33069;51.970;5.892;2022-07-29T12:30:05;4.35;;;2.47;;
47337;SDS011;33069;51.970;5.892;2022-07-29T12:32:36;8.70;;;3.15;;
47337;SDS011;33069;51.970;5.892;2022-07-29T12:35:14;5.40;;;3.10;;
47337;SDS011;33069;51.970;5.892;2022-07-29T12:37:42;8.30;;;2.53;;
47337;SDS011;33069;51.970;5.892;2022-07-29T12:40:10;4.68;;;2.90;;
47337;SDS011;33069;51.970;5.892;2022-07-29T12:42:37;5.90;;;3.38;;
47337;SDS011;33069;51.970;5.892;2022-07-29T12:45:04;7.43;;;3.60;;
47337;SDS011;33069;51.970;5.892;2022-07-29T12:47:31;7.47;;;3.28;;
47337;SDS011;33069;51.970;5.892;2022-07-29T12:50:08;5.28;;;2.92;;
47337;SDS011;33069;51.970;5.892;2022-07-29T12:52:40;6.93;;;3.13;;
47337;SDS011;33069;51.970;5.892;2022-07-29T12:55:06;8.07;;;3.17;;
47337;SDS011;33069;51.970;5.892;2022-07-29T12:57:32;8.45;;;3.20;;
47337;SDS011;33069;51.970;5.892;2022-07-29T13:00:13;5.22;;;2.72;;
47337;SDS011;33069;51.970;5.892;2022-07-29T13:02:40;5.93;;;2.80;;
47337;SDS011;33069;51.970;5.892;2022-07-29T13:05:08;9.13;;;2.90;;
47337;SDS011;33069;51.970;5.892;2022-07-29T13:07:35;6.55;;;3.03;;
47337;SDS011;33069;51.970;5.892;2022-07-29T13:10:12;5.93;;;2.63;;
47337;SDS011;33069;51.970;5.892;2022-07-29T13:13:00;9.90;;;2.95;;
47337;SDS011;33069;51.970;5.892;2022-07-29T13:15:39;7.65;;;2.97;;
47337;SDS011;33069;51.970;5.892;2022-07-29T13:20:55;5.32;;;2.42;;
47337;SDS011;33069;51.970;5.892;2022-07-29T13:23:21;4.82;;;2.53;;
47337;SDS011;33069;51.970;5.892;2022-07-29T13:25:47;5.93;;;3.30;;
47337;SDS011;33069;51.970;5.892;2022-07-29T13:28:13;5.43;;;2.60;;
47337;SDS011;33069;51.970;5.892;2022-07-29T13:30:39;5.57;;;2.80;;
47337;SDS011;33069;51.970;5.892;2022-07-29T13:33:06;5.30;;;2.90;;
47337;SDS011;33069;51.970;5.892;2022-07-29T13:35:31;9.20;;;3.88;;
47337;SDS011;33069;51.970;5.892;2022-07-29T13:37:57;6.75;;;3.10;;
47337;SDS011;33069;51.970;5.892;2022-07-29T13:40:23;4.47;;;2.97;;
47337;SDS011;33069;51.970;5.892;2022-07-29T13:42:49;6.80;;;2.88;;
47337;SDS011;33069;51.970;5.892;2022-07-29T13:45:15;6.95;;;2.92;;
47337;SDS011;33069;51.970;5.892;2022-07-29T13:47:41;7.68;;;3.22;;
47337;SDS011;33069;51.970;5.892;2022-07-29T13:50:07;5.63;;;2.83;;
47337;SDS011;33069;51.970;5.892;2022-07-29T13:52:35;8.35;;;3.03;;
47337;SDS011;33069;51.970;5.892;2022-07-29T13:55:02;5.70;;;2.80;;
47337;SDS011;33069;51.970;5.892;2022-07-29T13:57:29;9.07;;;3.20;;
47337;SDS011;33069;51.970;5.892;2022-07-29T13:59:55;7.85;;;2.90;;
47337;SDS011;33069;51.970;5.892;2022-07-29T14:02:21;6.28;;;2.28;;
47337;SDS011;33069;51.970;5.892;2022-07-29T14:04:46;6.97;;;2.75;;
47337;SDS011;33069;51.970;5.892;2022-07-29T14:07:12;6.70;;;3.00;;
47337;SDS011;33069;51.970;5.892;2022-07-29T14:09:38;3.20;;;2.30;;
47337;SDS011;33069;51.970;5.892;2022-07-29T14:12:04;5.40;;;2.75;;
47337;SDS011;33069;51.970;5.892;2022-07-29T14:14:30;7.07;;;2.65;;
47337;SDS011;33069;51.970;5.892;2022-07-29T14:16:57;6.72;;;3.35;;
47337;SDS011;33069;51.970;5.892;2022-07-29T14:19:23;5.65;;;3.00;;
47337;SDS011;33069;51.970;5.892;2022-07-29T14:21:49;4.38;;;2.35;;
47337;SDS011;33069;51.970;5.892;2022-07-29T14:24:15;7.18;;;2.90;;
47337;SDS011;33069;51.970;5.892;2022-07-29T14:26:41;5.07;;;2.60;;
47337;SDS011;33069;51.970;5.892;2022-07-29T14:29:06;2.97;;;2.30;;
47337;SDS011;33069;51.970;5.892;2022-07-29T14:31:32;6.95;;;2.70;;
47337;SDS011;33069;51.970;5.892;2022-07-29T14:33:58;4.93;;;2.75;;
47337;SDS011;33069;51.970;5.892;2022-07-29T14:36:24;6.13;;;2.70;;
47337;SDS011;33069;51.970;5.892;2022-07-29T14:38:49;8.95;;;3.00;;
47337;SDS011;33069;51.970;5.892;2022-07-29T14:41:15;3.97;;;2.35;;
47337;SDS011;33069;51.970;5.892;2022-07-29T14:43:41;5.50;;;2.50;;
47337;SDS011;33069;51.970;5.892;2022-07-29T14:46:06;6.75;;;2.63;;
47337;SDS011;33069;51.970;5.892;2022-07-29T14:48:33;8.05;;;3.00;;
47337;SDS011;33069;51.970;5.892;2022-07-29T14:50:58;5.25;;;2.80;;
47337;SDS011;33069;51.970;5.892;2022-07-29T14:53:24;12.15;;;2.67;;
47337;SDS011;33069;51.970;5.892;2022-07-29T14:55:50;6.25;;;2.72;;
47337;SDS011;33069;51.970;5.892;2022-07-29T14:58:16;7.70;;;2.70;;
47337;SDS011;33069;51.970;5.892;2022-07-29T15:00:42;6.05;;;2.80;;
47337;SDS011;33069;51.970;5.892;2022-07-29T15:03:08;5.00;;;2.33;;
47337;SDS011;33069;51.970;5.892;2022-07-29T15:05:36;6.55;;;2.60;;
47337;SDS011;33069;51.970;5.892;2022-07-29T15:08:02;5.65;;;2.35;;
47337;SDS011;33069;51.970;5.892;2022-07-29T15:10:29;6.57;;;3.05;;
47337;SDS011;33069;51.970;5.892;2022-07-29T15:12:55;7.57;;;2.53;;
47337;SDS011;33069;51.970;5.892;2022-07-29T15:15:20;4.68;;;2.40;;
47337;SDS011;33069;51.970;5.892;2022-07-29T15:17:46;5.55;;;2.53;;
47337;SDS011;33069;51.970;5.892;2022-07-29T15:20:12;4.13;;;2.17;;
47337;SDS011;33069;51.970;5.892;2022-07-29T15:22:38;5.60;;;2.75;;
47337;SDS011;33069;51.970;5.892;2022-07-29T15:25:06;4.22;;;2.30;;
47337;SDS011;33069;51.970;5.892;2022-07-29T15:27:32;4.95;;;2.20;;
47337;SDS011;33069;51.970;5.892;2022-07-29T15:29:58;8.40;;;2.60;;
47337;SDS011;33069;51.970;5.892;2022-07-29T15:32:23;4.32;;;2.20;;
47337;SDS011;33069;51.970;5.892;2022-07-29T15:34:49;6.10;;;2.47;;
47337;SDS011;33069;51.970;5.892;2022-07-29T15:37:15;4.05;;;2.25;;
47337;SDS011;33069;51.970;5.892;2022-07-29T15:39:41;8.18;;;2.55;;
47337;SDS011;33069;51.970;5.892;2022-07-29T15:42:07;5.93;;;2.70;;
47337;SDS011;33069;51.970;5.892;2022-07-29T15:44:33;3.67;;;2.00;;
47337;SDS011;33069;51.970;5.892;2022-07-29T15:46:59;5.25;;;2.72;;
47337;SDS011;33069;51.970;5.892;2022-07-29T15:49:46;6.28;;;2.53;;
47337;SDS011;33069;51.970;5.892;2022-07-29T15:52:11;4.03;;;1.98;;
47337;SDS011;33069;51.970;5.892;2022-07-29T15:54:38;4.28;;;2.33;;
47337;SDS011;33069;51.970;5.892;2022-07-29T15:57:07;7.50;;;2.50;;
47337;SDS011;33069;51.970;5.892;2022-07-29T15:59:33;5.57;;;2.35;;
47337;SDS011;33069;51.970;5.892;2022-07-29T16:01:59;4.63;;;2.70;;
47337;SDS011;33069;51.970;5.892;2022-07-29T16:04:26;7.20;;;2.58;;
47337;SDS011;33069;51.970;5.892;2022-07-29T16:06:52;3.08;;;2.40;;
47337;SDS011;33069;51.970;5.892;2022-07-29T16:09:17;5.68;;;2.40;;
47337;SDS011;33069;51.970;5.892;2022-07-29T16:11:43;7.00;;;2.50;;
47337;SDS011;33069;51.970;5.892;2022-07-29T16:14:10;4.78;;;2.30;;
47337;SDS011;33069;51.970;5.892;2022-07-29T16:16:36;3.63;;;2.10;;
47337;SDS011;33069;51.970;5.892;2022-07-29T16:19:03;4.90;;;2.50;;